Time;durP1;ratioP1;P1;durP2;ratioP2;P2;SDS_P1;SDS_P2;PMS_P1;PMS_P2;Temp;Humidity;BMP_temperature;BMP_pressure;BME280_temperature;BME280_humidity;BME280_pressure;Samples;Min_cycle;Max_cycle;Signal;HPM_P1;HPM_P2
2021/10/23 00:01:16;;;;;;;2.92;2.72;;;24.00;45.10;;;;;;4784686;29;20142;-53
2021/10/23 00:03:43;;;;;;;3.17;2.88;;;24.00;45.10;;;;;;4784191;29;20063;-52
2021/10/23 00:06:10;;;;;;;2.97;2.72;;;23.90;45.00;;;;;;4784394;29;20464;-51
2021/10/23 00:08:38;;;;;;;3.45;2.95;;;23.90;45.00;;;;;;4778573;29;20064;-54
2021/10/23 00:11:05;;;;;;;3.17;2.88;;;23.90;45.10;;;;;;4781470;29;20082;-53
2021/10/23 00:13:32;;;;;;;3.22;2.88;;;23.90;45.10;;;;;;4784258;29;20108;-53
2021/10/23 00:16:00;;;;;;;3.08;2.78;;;23.90;45.10;;;;;;4784145;29;20090;-53
2021/10/23 00:18:27;;;;;;;3.15;2.85;;;23.90;45.10;;;;;;4778381;29;21071;-52
2021/10/23 00:20:54;;;;;;;3.00;2.72;;;23.90;45.10;;;;;;4781236;29;20154;-53
2021/10/23 00:23:22;;;;;;;2.75;2.55;;;23.90;45.10;;;;;;4783619;29;20047;-54
2021/10/23 00:25:53;;;;;;;3.15;2.80;;;23.90;45.10;;;;;;4784354;29;20146;-53
2021/10/23 00:28:20;;;;;;;3.10;2.80;;;23.90;45.10;;;;;;4777229;29;20055;-51
2021/10/23 00:30:47;;;;;;;2.88;2.58;;;23.90;45.10;;;;;;4781455;29;20059;-53
2021/10/23 00:33:14;;;;;;;2.65;2.45;;;23.90;45.10;;;;;;4783498;29;20747;-55
2021/10/23 00:35:42;;;;;;;3.47;2.80;;;23.90;45.10;;;;;;4783776;29;20055;-53
2021/10/23 00:38:10;;;;;;;2.65;2.40;;;23.90;45.10;;;;;;4779155;29;20134;-55
2021/10/23 00:40:37;;;;;;;3.00;2.80;;;23.90;45.10;;;;;;4781101;29;20126;-52
2021/10/23 00:43:05;;;;;;;2.90;2.65;;;23.90;45.10;;;;;;4783667;29;20055;-50
2021/10/23 00:45:32;;;;;;;3.50;3.20;;;23.90;45.10;;;;;;4783576;29;20132;-52
2021/10/23 00:47:59;;;;;;;2.95;2.72;;;23.90;45.20;;;;;;4780096;29;20086;-52
2021/10/23 00:50:26;;;;;;;3.08;2.78;;;23.90;45.20;;;;;;4778636;29;20146;-53
2021/10/23 00:52:54;;;;;;;2.85;2.65;;;23.90;45.20;;;;;;4783139;29;20133;-53
2021/10/23 00:55:21;;;;;;;2.88;2.47;;;23.90;45.20;;;;;;4783321;29;20141;-53
2021/10/23 00:57:49;;;;;;;2.65;2.45;;;23.90;45.20;;;;;;4780058;29;20059;-53
2021/10/23 01:00:16;;;;;;;2.92;2.70;;;23.90;45.20;;;;;;4778492;29;20553;-53
2021/10/23 01:02:43;;;;;;;2.67;2.47;;;23.90;45.20;;;;;;4781963;30;20156;-51
2021/10/23 01:05:11;;;;;;;3.05;2.75;;;23.90;45.20;;;;;;4783343;29;20059;-53
2021/10/23 01:07:38;;;;;;;2.38;2.17;;;23.90;45.20;;;;;;4779404;29;20100;-51
2021/10/23 01:10:08;;;;;;;2.90;2.45;;;23.80;45.20;;;;;;4778905;29;20055;-53
2021/10/23 01:12:40;;;;;;;2.63;2.42;;;23.90;45.20;;;;;;4783126;29;20574;-54
2021/10/23 01:15:19;;;;;;;2.40;2.20;;;23.90;45.20;;;;;;4782773;29;20055;-55
2021/10/23 01:17:47;;;;;;;2.25;2.05;;;23.90;45.30;;;;;;4779627;29;20170;-52
2021/10/23 01:20:14;;;;;;;2.42;2.22;;;23.90;45.20;;;;;;4777142;29;20090;-55
2021/10/23 01:22:42;;;;;;;2.25;2.05;;;23.90;45.20;;;;;;4782880;29;20146;-51
2021/10/23 01:25:11;;;;;;;2.85;2.55;;;23.90;45.20;;;;;;4782676;29;20116;-52
2021/10/23 01:27:41;;;;;;;2.90;2.63;;;23.90;45.20;;;;;;4779763;29;20146;-54
2021/10/23 01:30:11;;;;;;;2.67;2.47;;;23.90;45.20;;;;;;4778622;29;20147;-51
2021/10/23 01:32:39;;;;;;;2.60;2.40;;;23.90;45.20;;;;;;4782756;29;20567;-54
2021/10/23 01:35:07;;;;;;;2.50;2.30;;;23.90;45.20;;;;;;4782779;29;20057;-55
2021/10/23 01:37:36;;;;;;;2.00;1.90;;;23.80;45.20;;;;;;4781533;29;20083;-53
2021/10/23 01:40:05;;;;;;;2.60;2.40;;;23.80;45.30;;;;;;4777353;29;20146;-53
2021/10/23 01:42:32;;;;;;;2.65;2.45;;;23.80;45.30;;;;;;4782727;29;20055;-54
2021/10/23 01:44:59;;;;;;;2.50;2.30;;;23.80;45.30;;;;;;4782666;29;20058;-53
2021/10/23 01:47:26;;;;;;;1.92;1.83;;;23.80;45.30;;;;;;4781940;29;20146;-55
2021/10/23 01:49:53;;;;;;;2.88;2.53;;;23.80;45.30;;;;;;4775909;29;20059;-52
2021/10/23 01:52:21;;;;;;;2.47;2.28;;;23.80;45.30;;;;;;4782640;29;20108;-53
2021/10/23 01:54:48;;;;;;;2.42;2.22;;;23.80;45.30;;;;;;4781173;29;20586;-52
2021/10/23 01:57:15;;;;;;;2.50;2.30;;;23.80;45.30;;;;;;4782557;29;20055;-53
2021/10/23 01:59:43;;;;;;;2.15;2.00;;;23.80;45.30;;;;;;4773543;29;20047;-53
2021/10/23 02:02:10;;;;;;;2.10;1.90;;;23.80;45.30;;;;;;4782732;29;20138;-53
2021/10/23 02:04:37;;;;;;;2.15;2.05;;;23.80;45.30;;;;;;4782062;29;20068;-54
2021/10/23 02:07:04;;;;;;;2.08;1.98;;;23.80;45.30;;;;;;4782195;29;20654;-53
2021/10/23 02:09:32;;;;;;;1.88;1.77;;;23.80;45.30;;;;;;4774178;29;20108;-57
2021/10/23 02:11:59;;;;;;;2.30;2.10;;;23.80;45.30;;;;;;4781072;29;20130;-54
2021/10/23 02:14:26;;;;;;;2.67;2.47;;;23.80;45.30;;;;;;4782315;29;20142;-55
2021/10/23 02:16:53;;;;;;;2.20;2.00;;;23.80;45.30;;;;;;4782037;29;20471;-50
2021/10/23 02:19:21;;;;;;;2.42;2.22;;;23.80;45.30;;;;;;4775359;29;20087;-51
2021/10/23 02:21:48;;;;;;;5.75;2.00;;;23.80;45.30;;;;;;4785957;29;20138;-55
2021/10/23 02:24:15;;;;;;;2.45;2.25;;;23.80;45.30;;;;;;4785902;29;20095;-50
2021/10/23 02:26:42;;;;;;;2.17;2.00;;;23.80;45.30;;;;;;4786378;29;20113;-52
2021/10/23 02:29:09;;;;;;;2.45;2.25;;;23.80;45.30;;;;;;4776872;29;20055;-54
2021/10/23 02:31:36;;;;;;;2.45;2.10;;;23.80;45.30;;;;;;4786174;29;20109;-53
2021/10/23 02:34:04;;;;;;;2.17;2.05;;;23.80;45.30;;;;;;4786021;29;20055;-54
2021/10/23 02:36:31;;;;;;;2.28;1.70;;;23.80;45.30;;;;;;4785840;29;20055;-54
2021/10/23 02:38:58;;;;;;;1.50;1.40;;;23.80;45.30;;;;;;4777172;29;20051;-50
2021/10/23 02:41:26;;;;;;;2.20;2.00;;;23.80;45.30;;;;;;4785484;29;20066;-53
2021/10/23 02:43:54;;;;;;;2.08;1.98;;;23.80;45.30;;;;;;4785956;29;20134;-51
2021/10/23 02:46:21;;;;;;;3.25;2.00;;;23.80;45.40;;;;;;4785494;29;20274;-53
2021/10/23 02:48:49;;;;;;;2.33;2.10;;;23.80;45.40;;;;;;4778271;29;20055;-53
2021/10/23 02:51:16;;;;;;;2.30;2.10;;;23.70;45.30;;;;;;4784240;29;20150;-52
2021/10/23 02:53:43;;;;;;;2.58;1.92;;;23.80;45.40;;;;;;4785184;29;20490;-54
2021/10/23 02:56:10;;;;;;;2.05;1.95;;;23.70;45.30;;;;;;4785664;29;20059;-50
2021/10/23 02:58:37;;;;;;;1.65;1.55;;;23.70;45.30;;;;;;4779676;29;20073;-54
2021/10/23 03:01:04;;;;;;;1.88;1.77;;;23.80;45.40;;;;;;4782976;29;20102;-53
2021/10/23 03:03:32;;;;;;;2.15;2.05;;;23.70;45.30;;;;;;4785462;29;20108;-53
2021/10/23 03:05:59;;;;;;;2.00;1.90;;;23.70;45.30;;;;;;4784754;29;20533;-50
2021/10/23 03:08:26;;;;;;;2.05;1.85;;;23.70;45.30;;;;;;4779734;29;20055;-55
2021/10/23 03:10:53;;;;;;;1.52;1.42;;;23.70;45.30;;;;;;4782371;29;20391;-52
2021/10/23 03:13:20;;;;;;;1.50;1.40;;;23.70;45.30;;;;;;4785532;29;20051;-52
2021/10/23 03:15:47;;;;;;;1.52;1.42;;;23.70;45.30;;;;;;4784941;29;20083;-52
2021/10/23 03:18:14;;;;;;;1.60;1.50;;;23.70;45.30;;;;;;4778950;29;20113;-54
2021/10/23 03:20:41;;;;;;;1.88;1.77;;;23.70;45.40;;;;;;4782316;29;20146;-53
2021/10/23 03:23:13;;;;;;;2.28;1.80;;;23.70;45.40;;;;;;4784887;29;20055;-55
2021/10/23 03:25:40;;;;;;;1.80;1.70;;;23.60;45.30;;;;;;4784819;29;20395;-54
2021/10/23 03:28:07;;;;;;;1.73;1.63;;;23.60;45.30;;;;;;4780445;29;20472;-55
2021/10/23 03:30:34;;;;;;;1.52;1.45;;;23.60;45.30;;;;;;4781751;29;20166;-53
2021/10/23 03:33:01;;;;;;;1.92;1.60;;;23.70;45.40;;;;;;4785233;29;20130;-54
2021/10/23 03:35:28;;;;;;;1.75;1.60;;;23.60;45.30;;;;;;4784650;29;20151;-54
2021/10/23 03:37:56;;;;;;;1.50;1.40;;;23.60;45.30;;;;;;4780941;29;20557;-52
2021/10/23 03:40:23;;;;;;;1.55;1.45;;;23.60;45.30;;;;;;4779117;29;20090;-55
2021/10/23 03:42:50;;;;;;;1.67;1.58;;;23.60;45.40;;;;;;4784626;29;20057;-55
2021/10/23 03:45:17;;;;;;;1.40;1.30;;;23.60;45.30;;;;;;4784893;29;20089;-51
2021/10/23 03:47:45;;;;;;;1.67;1.58;;;23.60;45.30;;;;;;4780661;29;20514;-52
2021/10/23 03:50:12;;;;;;;1.65;1.55;;;23.60;45.30;;;;;;4778388;29;20058;-53
2021/10/23 03:52:39;;;;;;;1.58;1.48;;;23.60;45.30;;;;;;4783236;30;20051;-54
2021/10/23 03:55:07;;;;;;;1.95;1.85;;;23.60;45.30;;;;;;4784642;29;20090;-52
2021/10/23 03:57:34;;;;;;;1.63;1.52;;;23.60;45.30;;;;;;4781433;29;20130;-54
2021/10/23 04:00:04;;;;;;;1.52;1.42;;;23.60;45.30;;;;;;4779999;29;20051;-52
2021/10/23 04:02:31;;;;;;;1.35;1.35;;;23.60;45.30;;;;;;4784161;29;20484;-54
2021/10/23 04:04:58;;;;;;;1.60;1.50;;;23.60;45.30;;;;;;4784162;29;20059;-54
2021/10/23 04:07:25;;;;;;;1.30;1.20;;;23.60;45.30;;;;;;4783692;29;20094;-53
2021/10/23 04:09:52;;;;;;;1.55;1.38;;;23.60;45.30;;;;;;4776609;29;20158;-53
2021/10/23 04:12:20;;;;;;;1.50;1.40;;;23.60;45.30;;;;;;4784272;29;20055;-54
2021/10/23 04:14:47;;;;;;;1.42;1.33;;;23.60;45.30;;;;;;4784211;29;20055;-51
2021/10/23 04:17:14;;;;;;;1.70;1.60;;;23.60;45.30;;;;;;4783974;29;20222;-51
2021/10/23 04:19:41;;;;;;;1.50;1.40;;;23.60;45.30;;;;;;4776789;29;20055;-54
2021/10/23 04:22:09;;;;;;;1.25;1.25;;;23.60;45.30;;;;;;4783906;29;20067;-55
2021/10/23 04:24:37;;;;;;;1.30;1.20;;;23.60;45.30;;;;;;4784197;29;20057;-55
2021/10/23 04:27:04;;;;;;;1.30;1.20;;;23.60;45.30;;;;;;4783678;29;20082;-51
2021/10/23 04:29:32;;;;;;;1.42;1.33;;;23.60;45.30;;;;;;4774431;29;20054;-52
2021/10/23 04:31:59;;;;;;;1.13;1.10;;;23.60;45.30;;;;;;4783745;29;20150;-54
2021/10/23 04:34:26;;;;;;;1.20;1.10;;;23.60;45.30;;;;;;4783620;29;20842;-53
2021/10/23 04:36:53;;;;;;;1.55;1.45;;;23.60;45.30;;;;;;4783665;29;20134;-51
2021/10/23 04:39:20;;;;;;;1.40;1.27;;;23.60;45.30;;;;;;4774446;29;20119;-55
2021/10/23 04:41:47;;;;;;;1.40;1.30;;;23.60;45.30;;;;;;4783082;29;20552;-54
2021/10/23 04:44:15;;;;;;;1.25;1.00;;;23.60;45.30;;;;;;4783361;29;20490;-54
2021/10/23 04:46:42;;;;;;;1.33;1.20;;;23.60;45.30;;;;;;4783416;29;20425;-52
2021/10/23 04:49:09;;;;;;;1.20;1.10;;;23.60;45.30;;;;;;4775571;29;20979;-52
2021/10/23 04:51:36;;;;;;;1.98;1.42;;;23.60;45.20;;;;;;4783432;29;20051;-51
2021/10/23 04:54:03;;;;;;;1.65;1.55;;;23.60;45.20;;;;;;4782459;30;20058;-54
2021/10/23 04:56:31;;;;;;;1.58;1.45;;;23.60;45.20;;;;;;4783471;29;20062;-53
2021/10/23 04:58:58;;;;;;;1.35;1.02;;;23.60;45.20;;;;;;4774820;29;20139;-55
2021/10/23 05:01:25;;;;;;;1.40;1.30;;;23.50;45.20;;;;;;4783473;29;20134;-54
2021/10/23 05:03:52;;;;;;;1.08;1.05;;;23.50;45.20;;;;;;4783194;29;20100;-56
2021/10/23 05:06:20;;;;;;;1.10;1.05;;;23.60;45.20;;;;;;4783203;29;20522;-54
2021/10/23 05:08:48;;;;;;;1.00;1.00;;;23.60;44.90;;;;;;4776022;29;20055;-53
2021/10/23 05:11:15;;;;;;;1.38;1.27;;;23.50;44.50;;;;;;4782757;29;20113;-51
2021/10/23 05:13:42;;;;;;;0.70;0.70;;;23.50;44.20;;;;;;4783346;29;20055;-52
2021/10/23 05:16:14;;;;;;;0.93;0.93;;;23.60;44.00;;;;;;4783356;29;20087;-53
2021/10/23 05:18:41;;;;;;;0.93;0.93;;;23.60;43.80;;;;;;4776498;29;20090;-54
2021/10/23 05:21:08;;;;;;;1.23;1.13;;;23.60;43.60;;;;;;4781351;29;20150;-54
2021/10/23 05:23:36;;;;;;;1.60;0.90;;;23.60;43.50;;;;;;4782608;29;20138;-55
2021/10/23 05:26:03;;;;;;;1.10;0.73;;;23.60;43.60;;;;;;4783340;29;20050;-55
2021/10/23 05:28:30;;;;;;;6.53;1.42;;;23.50;43.50;;;;;;4775641;29;20577;-50
2021/10/23 05:30:57;;;;;;;1.63;0.90;;;23.60;43.60;;;;;;4780450;29;20066;-53
2021/10/23 05:33:25;;;;;;;0.98;0.98;;;23.60;43.60;;;;;;4782973;29;20055;-54
2021/10/23 05:35:52;;;;;;;0.85;0.80;;;23.60;43.60;;;;;;4782445;29;20143;-53
2021/10/23 05:38:19;;;;;;;1.00;1.00;;;23.60;43.60;;;;;;4777150;29;20062;-51
2021/10/23 05:40:46;;;;;;;1.10;1.05;;;23.60;43.60;;;;;;4780145;29;20427;-55
2021/10/23 05:43:13;;;;;;;1.10;1.00;;;23.60;43.60;;;;;;4782991;29;20051;-52
2021/10/23 05:45:41;;;;;;;2.35;1.08;;;23.60;43.50;;;;;;4782930;29;20475;-54
2021/10/23 05:48:09;;;;;;;1.08;0.98;;;23.60;43.50;;;;;;4777038;30;20086;-55
2021/10/23 05:50:36;;;;;;;0.70;0.70;;;23.60;43.40;;;;;;4780545;29;20047;-52
2021/10/23 05:53:03;;;;;;;1.10;0.95;;;23.60;43.40;;;;;;4782720;29;20138;-52
2021/10/23 05:55:30;;;;;;;0.63;0.63;;;23.50;43.20;;;;;;4782439;29;20079;-54
2021/10/23 05:57:57;;;;;;;1.00;0.90;;;23.50;43.20;;;;;;4778256;29;20158;-55
2021/10/23 06:00:25;;;;;;;4.03;1.02;;;23.50;43.10;;;;;;4777187;29;20109;-55
2021/10/23 06:02:53;;;;;;;1.27;1.17;;;23.50;43.10;;;;;;4782686;29;20125;-51
2021/10/23 06:05:20;;;;;;;1.20;1.00;;;23.50;43.00;;;;;;4782151;29;20063;-55
2021/10/23 06:07:47;;;;;;;0.85;0.80;;;23.60;42.90;;;;;;4778809;29;20174;-54
2021/10/23 06:10:14;;;;;;;0.82;0.82;;;23.50;42.70;;;;;;4777638;29;20109;-54
2021/10/23 06:12:41;;;;;;;0.75;0.75;;;23.60;42.60;;;;;;4782637;29;20059;-53
2021/10/23 06:15:09;;;;;;;0.60;0.60;;;23.60;42.40;;;;;;4782811;29;20108;-54
2021/10/23 06:17:36;;;;;;;0.63;0.63;;;23.60;42.30;;;;;;4778057;29;20055;-54
2021/10/23 06:20:04;;;;;;;0.57;0.57;;;23.60;42.20;;;;;;4777832;29;20074;-54
2021/10/23 06:22:31;;;;;;;1.08;1.00;;;23.70;42.10;;;;;;4781128;29;20836;-52
2021/10/23 06:24:58;;;;;;;0.70;0.70;;;23.70;42.00;;;;;;4782077;29;20059;-53
2021/10/23 06:27:26;;;;;;;0.57;0.57;;;23.70;41.80;;;;;;4781741;29;20154;-54
2021/10/23 06:29:53;;;;;;;0.68;0.68;;;23.70;41.80;;;;;;4774647;29;20415;-54
2021/10/23 06:32:20;;;;;;;0.88;0.88;;;23.70;41.70;;;;;;4782270;29;20506;-54
2021/10/23 06:34:47;;;;;;;1.20;0.85;;;23.70;41.70;;;;;;4782294;29;20055;-55
2021/10/23 06:37:18;;;;;;;0.68;0.55;;;23.70;41.60;;;;;;4782352;29;20055;-57
2021/10/23 06:39:45;;;;;;;0.90;0.90;;;23.80;41.60;;;;;;4774066;29;20051;-54
2021/10/23 06:42:12;;;;;;;0.60;0.60;;;23.80;41.50;;;;;;4781982;29;20051;-53
2021/10/23 06:44:40;;;;;;;1.20;0.70;;;23.80;41.30;;;;;;4782521;29;20065;-54
2021/10/23 06:47:07;;;;;;;0.70;0.70;;;23.80;41.20;;;;;;4782368;29;20131;-54
2021/10/23 06:49:35;;;;;;;0.68;0.68;;;23.80;41.10;;;;;;4772365;29;20159;-53
2021/10/23 06:52:02;;;;;;;0.57;0.55;;;23.80;41.00;;;;;;4781945;29;20081;-54
2021/10/23 06:54:29;;;;;;;0.70;0.70;;;23.80;40.90;;;;;;4782173;29;20751;-53
2021/10/23 06:56:56;;;;;;;0.52;0.52;;;23.80;40.80;;;;;;4782056;29;20067;-52
2021/10/23 06:59:23;;;;;;;0.80;0.73;;;23.80;40.70;;;;;;4773001;29;20104;-54
2021/10/23 07:01:50;;;;;;;0.40;0.40;;;23.80;40.60;;;;;;4782198;29;20087;-55
2021/10/23 07:04:18;;;;;;;0.55;0.55;;;23.80;40.50;;;;;;4780894;30;20061;-56
2021/10/23 07:06:45;;;;;;;0.60;0.60;;;23.90;40.50;;;;;;4783887;29;20142;-54
2021/10/23 07:09:12;;;;;;;0.93;0.65;;;23.90;40.40;;;;;;4775376;29;20540;-55
2021/10/23 07:11:39;;;;;;;0.40;0.40;;;23.90;40.30;;;;;;4785342;29;20059;-54
2021/10/23 07:14:06;;;;;;;0.65;0.65;;;23.90;40.10;;;;;;4785387;29;20087;-55
2021/10/23 07:16:33;;;;;;;0.70;0.50;;;23.90;40.00;;;;;;4783813;29;20089;-54
2021/10/23 07:19:01;;;;;;;1.00;0.52;;;23.90;39.80;;;;;;4776901;29;20055;-53
2021/10/23 07:21:29;;;;;;;0.68;0.47;;;24.00;39.70;;;;;;4785131;29;20101;-54
2021/10/23 07:23:58;;;;;;;0.60;0.60;;;24.00;39.60;;;;;;4784702;29;20150;-55
2021/10/23 07:26:26;;;;;;;0.60;0.60;;;24.00;39.50;;;;;;4784661;29;20138;-54
2021/10/23 07:28:54;;;;;;;0.40;0.40;;;24.10;39.40;;;;;;4775750;29;20138;-54
2021/10/23 07:31:21;;;;;;;0.50;0.50;;;24.10;39.30;;;;;;4783675;29;20082;-55
2021/10/23 07:33:49;;;;;;;0.45;0.40;;;24.10;39.20;;;;;;4785555;29;20421;-54
2021/10/23 07:36:17;;;;;;;0.75;0.65;;;24.10;39.00;;;;;;4783686;29;20490;-52
2021/10/23 07:38:45;;;;;;;0.40;0.40;;;24.20;39.00;;;;;;4778447;29;20421;-54
2021/10/23 07:41:13;;;;;;;0.93;0.47;;;24.20;38.90;;;;;;4783637;29;20052;-54
2021/10/23 07:43:41;;;;;;;0.38;0.38;;;24.20;38.80;;;;;;4784475;29;20146;-53
2021/10/23 07:46:09;;;;;;;0.50;0.50;;;24.30;38.70;;;;;;4784623;29;20091;-51
2021/10/23 07:48:37;;;;;;;0.85;0.75;;;24.30;38.60;;;;;;4776934;30;20048;-54
2021/10/23 07:51:05;;;;;;;0.47;0.40;;;24.30;38.40;;;;;;4782146;29;20058;-55
2021/10/23 07:53:34;;;;;;;0.45;0.40;;;24.30;38.30;;;;;;4783993;29;20120;-53
2021/10/23 07:56:01;;;;;;;0.20;0.20;;;24.40;38.20;;;;;;4784222;29;20467;-53
2021/10/23 07:58:30;;;;;;;0.32;0.30;;;24.40;38.10;;;;;;4777235;29;20320;-52
2021/10/23 08:00:58;;;;;;;0.40;0.40;;;24.50;38.00;;;;;;4781453;29;20063;-51
2021/10/23 08:03:25;;;;;;;0.40;0.40;;;24.50;37.90;;;;;;4784610;29;20055;-54
2021/10/23 08:05:52;;;;;;;1.05;0.40;;;24.50;37.80;;;;;;4783782;29;20101;-54
2021/10/23 08:08:19;;;;;;;0.30;0.30;;;24.60;37.70;;;;;;4778725;29;20509;-50
2021/10/23 08:10:47;;;;;;;0.40;0.40;;;24.50;37.60;;;;;;4782096;29;20059;-53
2021/10/23 08:13:14;;;;;;;0.40;0.40;;;24.60;37.50;;;;;;4784327;29;20578;-51
2021/10/23 08:15:41;;;;;;;0.55;0.40;;;24.60;37.40;;;;;;4784462;29;20488;-54
2021/10/23 08:18:08;;;;;;;0.28;0.28;;;24.70;37.40;;;;;;4779690;29;20142;-52
2021/10/23 08:20:35;;;;;;;0.30;0.30;;;24.70;37.30;;;;;;4781310;29;20055;-55
2021/10/23 08:23:03;;;;;;;0.30;0.30;;;24.70;37.20;;;;;;4783882;29;20498;-52
2021/10/23 08:25:34;;;;;;;0.43;0.40;;;24.70;37.10;;;;;;4784314;29;20139;-53
2021/10/23 08:28:01;;;;;;;0.82;0.22;;;24.80;37.10;;;;;;4779878;29;20051;-53
2021/10/23 08:30:29;;;;;;;0.20;0.20;;;24.80;36.90;;;;;;4778710;29;20087;-50
2021/10/23 08:32:57;;;;;;;0.20;0.20;;;24.90;36.90;;;;;;4783781;29;20094;-51
2021/10/23 08:35:24;;;;;;;0.28;0.20;;;24.90;36.80;;;;;;4783733;29;20074;-51
2021/10/23 08:37:54;;;;;;;0.28;0.28;;;24.90;36.70;;;;;;4779962;29;20145;-53
2021/10/23 08:40:22;;;;;;;0.55;0.43;;;24.90;36.60;;;;;;4779491;29;20109;-54
2021/10/23 08:42:49;;;;;;;0.65;0.20;;;24.90;36.50;;;;;;4783544;29;20450;-53
2021/10/23 08:45:17;;;;;;;0.88;0.35;;;25.00;36.50;;;;;;4783904;29;20065;-54
2021/10/23 08:47:46;;;;;;;0.30;0.30;;;25.00;36.40;;;;;;4779214;29;20083;-54
2021/10/23 08:50:17;;;;;;;0.20;0.20;;;25.00;36.30;;;;;;4778540;29;20058;-53
2021/10/23 08:52:50;;;;;;;0.75;0.40;;;25.10;36.30;;;;;;4783241;29;20134;-55
2021/10/23 08:55:17;;;;;;;0.20;0.20;;;25.10;36.20;;;;;;4783266;29;20142;-52
2021/10/23 08:57:46;;;;;;;0.25;0.25;;;25.10;36.10;;;;;;4780222;29;20098;-54
2021/10/23 09:00:14;;;;;;;0.30;0.30;;;25.10;36.00;;;;;;4778131;29;20057;-51
2021/10/23 09:02:41;;;;;;;0.52;0.52;;;25.10;36.00;;;;;;4783201;29;20163;-53
2021/10/23 09:05:09;;;;;;;0.22;0.22;;;25.20;35.90;;;;;;4782185;30;20058;-51
2021/10/23 09:07:48;;;;;;;0.20;0.20;;;25.20;35.70;;;;;;4779070;29;20120;-54
2021/10/23 09:10:24;;;;;;;0.32;0.32;;;25.20;35.70;;;;;;4778295;29;20138;-51
2021/10/23 09:13:00;;;;;;;0.30;0.10;;;25.20;35.70;;;;;;4782641;29;20047;-49
2021/10/23 09:15:35;;;;;;;0.25;0.25;;;25.30;35.70;;;;;;4783458;29;20062;-49
2021/10/23 09:18:04;;;;;;;0.30;0.30;;;25.30;35.60;;;;;;4778959;29;20147;-51
2021/10/23 09:20:40;;;;;;;0.30;0.30;;;25.30;35.50;;;;;;4778061;29;20082;-52
2021/10/23 09:23:18;;;;;;;0.40;0.30;;;25.40;35.40;;;;;;4782852;29;20364;-53
2021/10/23 09:25:47;;;;;;;0.25;0.10;;;25.40;35.40;;;;;;4783231;29;20502;-53
2021/10/23 09:28:16;;;;;;;0.25;0.25;;;25.40;35.30;;;;;;4776618;29;20055;-53
2021/10/23 09:30:49;;;;;;;0.40;0.30;;;25.40;35.30;;;;;;4780036;29;20051;-52
2021/10/23 09:33:19;;;;;;;0.28;0.22;;;25.40;35.40;;;;;;4782911;29;20059;-55
2021/10/23 09:35:51;;;;;;;;;;;25.40;35.30;;;;;;4783303;29;20063;-55
2021/10/23 09:38:22;;;;;;;0.20;0.20;;;25.40;35.40;;;;;;4776455;29;20017;-55
2021/10/23 09:40:52;;;;;;;0.20;0.20;;;25.40;35.40;;;;;;4779250;30;20059;-54
2021/10/23 09:43:29;;;;;;;0.30;0.25;;;25.40;35.30;;;;;;4782792;29;20059;-53
2021/10/23 09:46:06;;;;;;;1.05;0.20;;;25.40;35.30;;;;;;4782837;29;20662;-51
2021/10/23 09:48:48;;;;;;;0.52;0.13;;;25.40;35.30;;;;;;4777560;29;20057;-54
2021/10/23 09:51:26;;;;;;;0.20;0.20;;;25.40;35.20;;;;;;4782830;29;20055;-50
2021/10/23 09:53:58;;;;;;;0.60;0.32;;;25.40;35.20;;;;;;4782662;29;20513;-50
2021/10/23 09:56:30;;;;;;;0.25;0.22;;;25.40;35.10;;;;;;4782613;29;20158;-51
2021/10/23 09:59:00;;;;;;;0.20;0.20;;;25.40;35.00;;;;;;4773700;29;20085;-52
2021/10/23 10:01:33;;;;;;;0.32;0.20;;;25.50;35.10;;;;;;4782252;29;20091;-54
2021/10/23 10:04:03;;;;;;;2.17;0.20;;;25.50;35.00;;;;;;4782625;29;20084;-52
2021/10/23 10:06:33;;;;;;;1.38;0.20;;;25.50;35.00;;;;;;4782238;29;20086;-54
2021/10/23 10:09:02;;;;;;;5.47;0.30;;;25.50;35.00;;;;;;4773526;29;20053;-54
2021/10/23 10:11:31;;;;;;;1.50;0.47;;;25.50;34.90;;;;;;4782461;29;20090;-51
2021/10/23 10:13:58;;;;;;;0.93;0.20;;;25.50;34.90;;;;;;4782508;29;20051;-50
2021/10/23 10:16:29;;;;;;;0.82;0.20;;;25.60;34.90;;;;;;4782474;29;20055;-52
2021/10/23 10:18:57;;;;;;;0.70;0.22;;;25.60;34.90;;;;;;4773070;29;20537;-51
2021/10/23 10:21:26;;;;;;;0.25;0.20;;;25.60;34.80;;;;;;4782096;29;20482;-51
2021/10/23 10:23:54;;;;;;;0.90;0.25;;;25.60;34.80;;;;;;4782058;29;20146;-50
2021/10/23 10:26:28;;;;;;;0.50;0.40;;;25.60;34.70;;;;;;4782084;29;20502;-52
2021/10/23 10:29:15;;;;;;;2.20;0.22;;;25.70;34.70;;;;;;4772915;29;20095;-53
2021/10/23 10:32:16;;;;;;;0.30;0.30;;;25.70;34.80;;;;;;4781820;29;20475;-50
2021/10/23 10:42:41;;;;;;;0.80;0.20;;;25.70;34.60;;;;;;4779859;29;20053;-55
2021/10/23 10:43:32;;;;;;;0.75;0.20;;;25.70;34.60;;;;;;4785315;29;20087;-53
2021/10/23 10:46:02;;;;;;;0.77;0.17;;;25.70;34.50;;;;;;4785736;29;20091;-52
2021/10/23 10:48:39;;;;;;;2.22;0.13;;;25.70;34.50;;;;;;4778974;29;20067;-55
2021/10/23 10:51:16;;;;;;;1.27;0.32;;;25.80;34.50;;;;;;4783116;29;20138;-54
2021/10/23 10:54:03;;;;;;;1.08;0.20;;;25.80;34.40;;;;;;4785089;29;20142;-54
2021/10/23 10:56:50;;;;;;;0.98;0.43;;;25.80;34.40;;;;;;4785301;29;20108;-54
2021/10/23 10:59:53;;;;;;;0.65;0.28;;;25.80;34.30;;;;;;4776797;29;20134;-54
2021/10/23 11:02:30;;;;;;;0.10;0.10;;;25.80;34.30;;;;;;4785299;29;20134;-51
2021/10/23 11:05:09;;;;;;;0.10;0.10;;;25.80;34.20;;;;;;4785399;29;20066;-54
2021/10/23 11:08:06;;;;;;;3.55;0.68;;;25.90;34.30;;;;;;4781282;29;20057;-52
2021/10/23 11:10:56;;;;;;;0.68;0.10;;;25.90;34.20;;;;;;4781139;29;20048;-51
2021/10/23 11:13:28;;;;;;;0.73;0.10;;;25.90;34.20;;;;;;4784854;29;20469;-51
2021/10/23 11:15:56;;;;;;;0.93;0.30;;;25.90;34.20;;;;;;4785357;29;20063;-54
2021/10/23 11:18:24;;;;;;;2.85;0.57;;;25.90;34.10;;;;;;4778427;29;20536;-51
2021/10/23 11:20:51;;;;;;;0.15;0.15;;;25.90;34.10;;;;;;4782470;29;20467;-55
2021/10/23 11:23:21;;;;;;;0.95;0.22;;;25.90;34.10;;;;;;4785128;29;20059;-52
2021/10/23 11:25:49;;;;;;;2.47;0.10;;;25.90;34.50;;;;;;4784941;29;20108;-52
2021/10/23 11:28:16;;;;;;;0.32;0.30;;;25.90;34.00;;;;;;4779582;29;20487;-52
2021/10/23 11:30:44;;;;;;;2.58;0.25;;;25.90;34.00;;;;;;4782348;29;20138;-53
2021/10/23 11:33:15;;;;;;;0.22;0.22;;;26.00;34.00;;;;;;4784916;29;20063;-53
2021/10/23 11:35:54;;;;;;;0.57;0.30;;;26.00;34.00;;;;;;4784818;29;20482;-51
2021/10/23 11:38:23;;;;;;;1.35;0.28;;;26.00;33.90;;;;;;4778718;29;20076;-52
2021/10/23 11:40:55;;;;;;;0.28;0.15;;;26.00;33.90;;;;;;4782313;29;20417;-52
2021/10/23 11:43:23;;;;;;;1.13;0.30;;;26.00;33.80;;;;;;4784237;29;20055;-54
2021/10/23 11:45:50;;;;;;;0.22;0.22;;;26.00;33.70;;;;;;4785096;29;20056;-55
2021/10/23 11:48:18;;;;;;;2.28;0.10;;;26.00;33.70;;;;;;4778839;29;20142;-52
2021/10/23 11:50:50;;;;;;;1.00;0.30;;;26.00;33.70;;;;;;4781796;29;20142;-53
2021/10/23 11:53:23;;;;;;;0.20;0.20;;;26.00;33.60;;;;;;4784002;29;20130;-55
2021/10/23 11:55:55;;;;;;;0.25;0.20;;;26.00;33.60;;;;;;4784902;29;20469;-53
2021/10/23 11:58:30;;;;;;;0.20;0.20;;;26.00;33.60;;;;;;4778391;29;20067;-52
2021/10/23 12:01:10;;;;;;;2.63;0.30;;;26.00;33.60;;;;;;4782242;29;20093;-53
2021/10/23 12:03:51;;;;;;;0.93;0.20;;;26.00;33.60;;;;;;4784647;29;20058;-52
2021/10/23 12:06:21;;;;;;;1.13;0.30;;;26.00;33.60;;;;;;4784423;29;20480;-54
2021/10/23 12:08:50;;;;;;;0.60;0.20;;;26.00;33.60;;;;;;4776514;29;20090;-54
2021/10/23 12:11:24;;;;;;;0.57;0.30;;;26.00;33.60;;;;;;4784444;29;20291;-55
2021/10/23 12:14:03;;;;;;;0.20;0.20;;;26.00;33.60;;;;;;4783978;29;20498;-55
2021/10/23 12:16:48;;;;;;;0.30;0.30;;;26.00;33.60;;;;;;4784413;29;20104;-49
2021/10/23 12:19:20;;;;;;;0.30;0.10;;;26.00;33.60;;;;;;4774870;29;20147;-54
2021/10/23 12:22:09;;;;;;;0.13;0.10;;;26.00;33.60;;;;;;4784092;29;20134;-53
2021/10/23 12:24:40;;;;;;;0.40;0.20;;;26.00;33.50;;;;;;4783779;29;20147;-55
2021/10/23 12:27:29;;;;;;;0.20;0.20;;;26.00;33.50;;;;;;4782704;29;20134;-54
2021/10/23 12:30:06;;;;;;;0.10;0.10;;;26.00;33.50;;;;;;4776634;29;20069;-54
2021/10/23 12:32:40;;;;;;;0.52;0.30;;;26.00;33.50;;;;;;4783603;29;20059;-52
2021/10/23 12:35:19;;;;;;;0.20;0.20;;;26.00;33.50;;;;;;4784046;29;20120;-53
2021/10/23 12:37:54;;;;;;;0.32;0.28;;;26.00;33.50;;;;;;4779861;29;20141;-54
2021/10/23 12:40:28;;;;;;;0.30;0.30;;;26.00;33.40;;;;;;4779074;29;20051;-54
2021/10/23 12:43:10;;;;;;;2.17;0.10;;;26.00;33.30;;;;;;4783732;29;20116;-54
2021/10/23 12:45:43;;;;;;;0.38;0.38;;;26.00;33.30;;;;;;4783316;29;20083;-53
2021/10/23 12:48:16;;;;;;;0.52;0.20;;;26.10;33.20;;;;;;4778681;29;20070;-54
2021/10/23 12:50:45;;;;;;;0.40;0.20;;;26.10;33.20;;;;;;4781483;29;20087;-54
2021/10/23 12:53:13;;;;;;;0.60;0.10;;;26.00;33.10;;;;;;4783983;29;20055;-52
2021/10/23 12:55:41;;;;;;;0.30;0.28;;;26.10;33.20;;;;;;4783025;29;20110;-55
2021/10/23 12:58:09;;;;;;;0.10;0.10;;;26.10;33.10;;;;;;4779416;29;20138;-54
2021/10/23 13:00:39;;;;;;;0.80;0.38;;;26.00;33.00;;;;;;4779961;29;20063;-53
2021/10/23 13:03:07;;;;;;;1.00;0.60;;;26.10;33.10;;;;;;4782447;29;20055;-54
2021/10/23 13:05:34;;;;;;;0.47;0.38;;;26.00;33.00;;;;;;4783312;29;20490;-52